Washington, DC (20077)

8:49 PM EDT on August 27, 2016 (GMT -0400)
Eckington Pl, NE | | Change Station

Elev 90 ft 38.91 °N, 77.01 °W | Updated 1 minute ago

Scattered Clouds
Scattered Clouds
85.2 °F
Feels Like 88 °F
N
4.0
Wind Variable Wind from NE
Gusts 6.0 mph

Today
High -- | Low -- °F
--% Chance of Precip.
Yesterday
High -- | Low -- °F
Precip. -- in
Pressure 30.15 in
Visibility 10.0 miles
Clouds Scattered Clouds 25000 ft
Heat Index 88 °F
Dew Point 67 °F
Humidity 54%
Rainfall Not available.
Snow Depth Not available.
6:32 AM 7:45 PM
Waning Crescent, 20% visible
METAR KDCA 272352Z 10007KT 10SM SCT250 29/19 A3015 RMK AO2 SLP209 T02940189 10333 20294 53006
Pressure 30.15 in
Visibility 10.0 miles
Clouds Scattered Clouds 25000 ft
Heat Index 88 °F
Dew Point 67 °F
Humidity 54%
Rainfall Not available.
Snow Depth Not available.
6:32 AM 7:45 PM
Waning Crescent, 20% visible
METAR KDCA 272352Z 10007KT 10SM SCT250 29/19 A3015 RMK AO2 SLP209 T02940189 10333 20294 53006

10-Day Weather Forecast

Almanac

Astronomy

Aug. 27, 2016 Rise Set
Actual Time
Civil Twilight
Nautical Twilight
Astronomical Twilight
Moon
Length of Visible Light
Length of Day
Tomorrow will be .
, % of the Moon is Illuminated

Today's Extremes

State Highs State Lows

Community

WunderPhotos

Upload Photos

1,935,475 photos uploaded!

WunderBlog® & News

Nearby

Air Quality

  Air Quality AQ Index Pollutant
Not available.

Snow Depth

Station Depth Elevation

Earthquake Activity

City Distance Mag. Time & Date
Minimum magnitude displayed is 2.5.

Coastal Water Temperatures

Place Temperature

Stations

Nearby Weather Stations

Station Location Temp. Windchill Dew Point Humidity Wind Precip. Elev Updated Type
                   

Watches & Warnings

There are currently no watches in effect.